Time;durP1;ratioP1;P1;durP2;ratioP2;P2;SDS_P1;SDS_P2;PMS_P1;PMS_P2;Temp;Humidity;BMP_temperature;BMP_pressure;BME280_temperature;BME280_humidity;BME280_pressure;Samples;Min_cycle;Max_cycle;Signal;HPM_P1;HPM_P2
2021/03/07 00:00:13;;;;;;;10.35;4.20;;;;;;;12.81;63.23;101727.81;5004306;28;20029;-67
2021/03/07 00:02:41;;;;;;;10.35;4.47;;;;;;;12.75;63.35;101725.91;5009365;28;20042;-67
2021/03/07 00:05:10;;;;;;;10.27;4.28;;;;;;;12.72;63.42;101732.06;5009008;28;20405;-67
2021/03/07 00:07:37;;;;;;;10.07;4.30;;;;;;;12.68;63.51;101727.53;5009315;28;20116;-67
2021/03/07 00:10:06;;;;;;;14.32;7.30;;;;;;;12.68;63.71;101734.59;5009999;28;20420;-67
2021/03/07 00:12:33;;;;;;;14.93;6.70;;;;;;;12.59;63.78;101731.75;5008842;28;20064;-67
2021/03/07 00:15:01;;;;;;;15.38;7.15;;;;;;;12.49;63.92;101729.72;5009342;28;20125;-66
2021/03/07 00:17:29;;;;;;;12.45;7.38;;;;;;;12.42;64.16;101728.69;5008890;28;20079;-67
2021/03/07 00:19:56;;;;;;;16.60;9.77;;;;;;;12.35;64.24;101726.75;5009359;28;20380;-67
2021/03/07 00:22:23;;;;;;;11.35;7.43;;;;;;;12.37;64.21;101725.94;5008927;28;20403;-67
2021/03/07 00:24:50;;;;;;;10.43;6.10;;;;;;;12.35;64.13;101718.81;5008942;28;20129;-67
2021/03/07 00:27:17;;;;;;;10.50;5.55;;;;;;;12.17;64.45;101716.63;5012609;28;20045;-66
2021/03/07 00:29:45;;;;;;;12.93;5.80;;;;;;;12.14;64.72;101727.13;5013197;28;20044;-66
2021/03/07 00:32:12;;;;;;;10.35;5.30;;;;;;;12.10;64.75;101722.63;5012327;28;20033;-67
2021/03/07 00:34:40;;;;;;;11.32;4.95;;;;;;;12.16;64.83;101719.22;5013090;28;20026;-67
2021/03/07 00:37:07;;;;;;;13.15;5.40;;;;;;;12.20;64.57;101727.31;5012673;28;20084;-66
2021/03/07 00:39:34;;;;;;;9.93;5.10;;;;;;;12.14;64.76;101726.25;5012358;28;20569;-66
2021/03/07 00:42:02;;;;;;;8.88;5.03;;;;;;;12.11;65.04;101727.06;5012710;28;20054;-67
2021/03/07 00:44:29;;;;;;;12.50;4.80;;;;;;;12.16;64.71;101737.75;5012460;28;20431;-67
2021/03/07 00:46:56;;;;;;;9.90;4.85;;;;;;;12.20;64.77;101729.97;5012529;28;20057;-67
2021/03/07 00:49:26;;;;;;;11.52;5.78;;;;;;;12.24;64.68;101729.16;5012171;28;20068;-66
2021/03/07 00:51:55;;;;;;;12.50;5.38;;;;;;;12.09;64.90;101730.53;5012942;28;20045;-66
2021/03/07 00:54:22;;;;;;;9.40;4.97;;;;;;;11.87;65.53;101737.03;5012156;28;20070;-65
2021/03/07 00:56:49;;;;;;;14.40;6.45;;;;;;;11.84;65.67;101735.19;5012302;28;20040;-66
2021/03/07 00:59:16;;;;;;;9.38;4.82;;;;;;;11.91;65.45;101730.97;5011826;28;20116;-67
2021/03/07 01:01:44;;;;;;;10.05;4.50;;;;;;;11.98;65.16;101736.47;5012447;28;20049;-66
2021/03/07 01:04:11;;;;;;;11.07;4.82;;;;;;;11.96;65.20;101738.16;5011905;28;20446;-67
2021/03/07 01:06:38;;;;;;;11.82;5.60;;;;;;;11.94;65.31;101734.59;5012296;28;20491;-67
2021/03/07 01:09:07;;;;;;;16.65;8.27;;;;;;;11.78;66.00;101732.41;5012575;28;20038;-67
2021/03/07 01:11:34;;;;;;;13.35;6.35;;;;;;;11.70;66.33;101736.53;5011990;28;20116;-66
2021/03/07 01:14:01;;;;;;;16.00;6.85;;;;;;;11.62;66.67;101734.56;5012215;28;20045;-66
2021/03/07 01:16:29;;;;;;;20.92;9.63;;;;;;;11.61;66.51;101736.31;5011556;28;20042;-66
2021/03/07 01:18:56;;;;;;;12.52;7.38;;;;;;;11.69;66.44;101739.16;5012203;28;20125;-67
2021/03/07 01:21:23;;;;;;;13.38;7.28;;;;;;;11.73;66.06;101738.41;5011159;28;20038;-66
2021/03/07 01:23:51;;;;;;;17.77;7.72;;;;;;;11.62;66.37;101730.16;5011841;28;20081;-67
2021/03/07 01:26:19;;;;;;;14.68;6.78;;;;;;;11.71;66.14;101727.75;5011793;28;20058;-66
2021/03/07 01:28:46;;;;;;;13.02;6.45;;;;;;;11.46;66.24;101734.16;5012095;28;20045;-66
2021/03/07 01:31:13;;;;;;;14.43;6.72;;;;;;;11.44;66.52;101740.22;5011633;28;20455;-66
2021/03/07 01:33:40;;;;;;;12.73;6.07;;;;;;;11.54;66.55;101744.94;5011532;28;20038;-67
2021/03/07 01:36:08;;;;;;;9.30;5.15;;;;;;;11.54;66.30;101744.94;5010363;28;20038;-67
2021/03/07 01:38:35;;;;;;;12.20;6.05;;;;;;;11.62;66.10;101745.16;5010976;28;20450;-66
2021/03/07 01:41:02;;;;;;;17.70;7.20;;;;;;;11.51;66.38;101743.09;5011918;28;20441;-66
2021/03/07 01:43:30;;;;;;;11.00;5.15;;;;;;;11.50;66.55;101741.31;5011108;28;20038;-67
2021/03/07 01:45:57;;;;;;;13.02;8.05;;;;;;;11.46;66.47;101744.72;5012055;28;20041;-67
2021/03/07 01:48:25;;;;;;;13.20;6.32;;;;;;;11.47;66.69;101743.88;5010171;28;20066;-66
2021/03/07 01:50:53;;;;;;;11.55;5.53;;;;;;;11.53;66.65;101743.16;5011210;28;20478;-67
2021/03/07 01:53:22;;;;;;;9.60;5.60;;;;;;;11.51;66.74;101745.75;5010808;28;20045;-66
2021/03/07 01:55:51;;;;;;;10.18;5.47;;;;;;;11.53;66.92;101757.25;5011575;28;20037;-67
2021/03/07 01:58:23;;;;;;;17.38;7.43;;;;;;;11.57;66.88;101755.59;5010743;28;20498;-66
2021/03/07 02:00:52;;;;;;;15.82;7.82;;;;;;;11.60;66.95;101753.03;5011505;28;20067;-67
2021/03/07 02:03:19;;;;;;;12.60;7.13;;;;;;;11.51;66.98;101744.84;5010733;28;20125;-67
2021/03/07 02:05:48;;;;;;;12.82;6.30;;;;;;;11.38;67.52;101753.28;5010870;28;20142;-67
2021/03/07 02:08:17;;;;;;;11.93;5.10;;;;;;;11.42;67.28;101755.19;5010531;28;20064;-67
2021/03/07 02:10:47;;;;;;;14.57;4.70;;;;;;;11.48;67.18;101750.06;5011536;28;20069;-66
2021/03/07 02:13:16;;;;;;;13.52;5.88;;;;;;;11.49;67.06;101743.91;5010518;28;20042;-67
2021/03/07 02:15:46;;;;;;;14.65;6.65;;;;;;;11.48;67.21;101745.69;5010514;28;20050;-66
2021/03/07 02:18:15;;;;;;;12.02;5.47;;;;;;;11.54;67.31;101750.22;5010007;28;20060;-67
2021/03/07 02:20:47;;;;;;;9.52;4.80;;;;;;;11.58;67.55;101753.00;5011016;28;20064;-66
2021/03/07 02:23:19;;;;;;;8.82;4.95;;;;;;;11.60;67.28;101739.81;5010768;28;20038;-67
2021/03/07 02:25:48;;;;;;;12.52;5.72;;;;;;;11.58;67.32;101738.88;5011410;28;20060;-67
2021/03/07 02:28:16;;;;;;;13.88;8.13;;;;;;;11.61;67.45;101735.44;5010124;28;20073;-67
2021/03/07 02:30:43;;;;;;;14.35;9.15;;;;;;;11.64;67.51;101736.38;5010995;28;20041;-67
2021/03/07 02:33:18;;;;;;;15.35;8.45;;;;;;;11.61;67.55;101738.97;5011225;28;20038;-66
2021/03/07 02:35:50;;;;;;;20.83;12.85;;;;;;;11.51;67.63;101732.50;5009533;28;20048;-67
2021/03/07 02:38:20;;;;;;;12.77;8.80;;;;;;;11.48;67.48;101739.50;5009769;28;20038;-66
2021/03/07 02:40:53;;;;;;;23.20;6.32;;;;;;;11.47;67.72;101730.66;5010187;28;20042;-66
2021/03/07 02:43:22;;;;;;;14.77;6.68;;;;;;;11.44;68.04;101730.56;5009887;28;20046;-67
2021/03/07 02:45:51;;;;;;;8.63;4.32;;;;;;;11.42;67.99;101734.03;5010886;28;20518;-67
2021/03/07 02:48:23;;;;;;;10.15;4.60;;;;;;;11.42;68.18;101732.25;5009959;28;20582;-67
2021/03/07 02:50:51;;;;;;;11.50;5.15;;;;;;;11.39;68.08;101731.28;5010539;28;20046;-66
2021/03/07 02:53:22;;;;;;;14.63;5.90;;;;;;;11.42;68.19;101723.47;5008515;28;20125;-66
2021/03/07 02:55:57;;;;;;;13.00;6.25;;;;;;;11.47;68.49;101728.00;4993078;28;20038;-67
2021/03/07 02:58:25;;;;;;;14.15;7.20;;;;;;;11.35;68.82;101732.97;5009858;28;20121;-66
2021/03/07 03:00:56;;;;;;;11.90;5.82;;;;;;;11.31;68.70;101732.81;5010599;28;20042;-67
2021/03/07 03:03:27;;;;;;;15.95;5.82;;;;;;;11.30;68.94;101731.91;5009538;28;20121;-67
2021/03/07 03:05:55;;;;;;;13.15;5.63;;;;;;;11.32;68.85;101737.25;5010090;28;20181;-67
2021/03/07 03:08:23;;;;;;;10.13;4.75;;;;;;;11.37;68.87;101740.91;5009372;28;20073;-67
2021/03/07 03:10:51;;;;;;;10.95;4.15;;;;;;;11.40;69.04;101741.00;5010704;28;20042;-66
2021/03/07 03:13:20;;;;;;;10.75;4.50;;;;;;;11.37;69.31;101743.56;4992325;28;20045;-66
2021/03/07 03:15:48;;;;;;;11.45;5.88;;;;;;;11.36;69.71;101741.75;5009723;28;20032;-67
2021/03/07 03:18:17;;;;;;;17.23;6.68;;;;;;;11.39;69.79;101744.50;5009314;28;20129;-67
2021/03/07 03:20:45;;;;;;;13.82;6.18;;;;;;;11.35;69.64;101748.81;5009638;28;20034;-67
2021/03/07 03:23:13;;;;;;;16.48;5.40;;;;;;;11.35;69.44;101753.22;5009380;28;20037;-67
2021/03/07 03:25:41;;;;;;;22.65;8.25;;;;;;;11.33;69.47;101749.63;5009896;28;20089;-67
2021/03/07 03:28:08;;;;;;;17.15;7.70;;;;;;;11.31;69.79;101749.56;5010252;28;20064;-66
2021/03/07 03:30:37;;;;;;;24.17;9.10;;;;;;;11.30;69.81;101753.06;5009486;28;20132;-66
2021/03/07 03:33:05;;;;;;;21.88;14.07;;;;;;;11.34;69.69;101751.41;5010185;28;20038;-68
2021/03/07 03:35:32;;;;;;;18.75;11.95;;;;;;;11.33;69.94;101754.91;5009400;28;20046;-67
2021/03/07 03:37:59;;;;;;;20.15;12.88;;;;;;;11.28;69.91;101752.16;5009945;28;20041;-67
2021/03/07 03:40:28;;;;;;;21.08;13.00;;;;;;;11.30;69.94;101760.09;5008570;28;20046;-67
2021/03/07 03:42:59;;;;;;;20.67;12.15;;;;;;;11.19;70.13;101754.50;5010104;28;20046;-67
2021/03/07 03:45:28;;;;;;;21.38;12.70;;;;;;;11.09;70.41;101761.25;5009241;28;20034;-67
2021/03/07 03:48:01;;;;;;;18.95;11.48;;;;;;;11.04;70.51;101759.34;5009533;28;20074;-67
2021/03/07 03:50:30;;;;;;;21.15;13.18;;;;;;;11.11;70.42;101754.28;5008926;28;20129;-67
2021/03/07 03:53:01;;;;;;;19.80;8.85;;;;;;;11.19;69.94;101758.06;5009323;28;20065;-67
2021/03/07 03:55:30;;;;;;;11.35;5.90;;;;;;;11.24;70.07;101760.81;5009253;28;20073;-67
2021/03/07 03:58:03;;;;;;;12.27;6.07;;;;;;;11.30;70.40;101757.44;4990464;28;20038;-67
2021/03/07 04:00:33;;;;;;;14.70;6.63;;;;;;;11.23;70.44;101768.69;5009078;28;20503;-67
2021/03/07 04:03:02;;;;;;;12.23;6.55;;;;;;;11.16;70.47;101779.09;5013849;28;20068;-67
2021/03/07 04:05:30;;;;;;;13.25;7.10;;;;;;;11.13;70.42;101788.69;5012919;28;20073;-66
2021/03/07 04:07:59;;;;;;;11.10;5.50;;;;;;;11.12;70.44;101784.25;5013424;28;20116;-66
2021/03/07 04:10:27;;;;;;;10.20;5.40;;;;;;;11.12;70.45;101784.25;5012755;28;20531;-67
2021/03/07 04:12:59;;;;;;;11.73;5.20;;;;;;;11.17;70.44;101783.53;5013771;28;20505;-67
2021/03/07 04:15:28;;;;;;;11.10;5.50;;;;;;;11.11;70.41;101793.03;5012799;28;20042;-66
2021/03/07 04:17:56;;;;;;;16.00;6.38;;;;;;;11.07;70.56;101791.16;5013468;28;20402;-67
2021/03/07 04:20:27;;;;;;;17.77;7.10;;;;;;;10.95;70.89;101789.03;5013132;28;20526;-67
2021/03/07 04:22:55;;;;;;;13.32;6.20;;;;;;;10.84;71.25;101790.44;5013361;28;20045;-67
2021/03/07 04:25:22;;;;;;;12.57;6.38;;;;;;;10.95;71.12;101793.44;5011611;28;20034;-66
2021/03/07 04:27:50;;;;;;;25.13;8.18;;;;;;;11.01;71.00;101794.50;5012247;28;20137;-67
2021/03/07 04:30:19;;;;;;;17.77;8.07;;;;;;;10.93;71.09;101801.31;5012865;28;20046;-67
2021/03/07 04:32:46;;;;;;;16.85;6.53;;;;;;;11.05;71.25;101796.38;5012497;28;20427;-67
2021/03/07 04:35:14;;;;;;;15.95;7.80;;;;;;;11.05;70.91;101804.31;5012160;28;20092;-67
2021/03/07 04:37:42;;;;;;;15.40;7.80;;;;;;;11.08;70.98;101803.53;5012471;28;20038;-67
2021/03/07 04:40:11;;;;;;;13.02;5.97;;;;;;;11.02;70.99;101800.69;4995461;28;20687;-66
2021/03/07 04:42:41;;;;;;;14.88;6.20;;;;;;;10.96;71.22;101804.00;5012787;28;20034;-67
2021/03/07 04:45:12;;;;;;;13.45;7.38;;;;;;;10.96;71.17;101798.72;5012553;28;20125;-66
2021/03/07 04:47:39;;;;;;;15.40;8.60;;;;;;;10.93;71.39;101795.13;5012450;28;20049;-66
2021/03/07 04:50:08;;;;;;;28.50;14.15;;;;;;;11.00;71.37;101799.75;5012752;28;20061;-67
2021/03/07 04:52:36;;;;;;;21.65;13.75;;;;;;;11.03;71.51;101802.47;5012057;28;20041;-67
2021/03/07 04:55:05;;;;;;;28.45;15.45;;;;;;;11.13;71.50;101799.25;5012056;28;20148;-67
2021/03/07 04:57:33;;;;;;;25.17;14.25;;;;;;;11.11;71.72;101801.84;5012088;28;20046;-67
2021/03/07 05:00:00;;;;;;;18.38;10.45;;;;;;;11.13;71.90;101799.25;5012226;28;20403;-65
2021/03/07 05:02:27;;;;;;;18.30;9.85;;;;;;;11.11;72.31;101807.13;5001601;28;20038;-66
2021/03/07 05:04:54;;;;;;;17.83;10.65;;;;;;;11.17;72.41;101807.31;5012018;28;20490;-66
2021/03/07 05:07:21;;;;;;;17.60;8.30;;;;;;;11.29;72.30;101803.25;5011975;28;20065;-65
2021/03/07 05:09:47;;;;;;;10.05;5.25;;;;;;;11.39;72.31;101797.38;5012672;28;20072;-67
2021/03/07 05:12:16;;;;;;;16.38;8.25;;;;;;;11.47;72.31;101802.03;5011297;28;20038;-67
2021/03/07 05:14:43;;;;;;;12.95;5.78;;;;;;;11.58;72.57;101804.97;5011980;28;20036;-67
2021/03/07 05:17:10;;;;;;;39.67;26.38;;;;;;;11.74;72.89;101807.25;5012259;28;20502;-67
2021/03/07 05:19:37;;;;;;;11.75;6.25;;;;;;;11.94;73.09;101808.69;5011144;28;20112;-66
2021/03/07 05:22:04;;;;;;;12.32;6.13;;;;;;;12.10;73.00;101820.56;5012383;28;20060;-67
2021/03/07 05:24:32;;;;;;;19.50;9.60;;;;;;;12.18;72.92;101826.06;5011910;28;20079;-67
2021/03/07 05:27:05;;;;;;;20.08;9.55;;;;;;;12.23;72.83;101825.31;5011521;28;20050;-67
2021/03/07 05:29:34;;;;;;;11.00;5.30;;;;;;;12.32;72.87;101844.09;5011197;28;20140;-67
2021/03/07 05:32:02;;;;;;;7.82;4.72;;;;;;;12.36;72.81;101842.41;5011999;28;20125;-67
2021/03/07 05:34:29;;;;;;;11.10;4.22;;;;;;;12.38;73.00;101844.25;5010328;28;20053;-67
2021/03/07 05:36:56;;;;;;;9.48;4.55;;;;;;;12.42;73.13;101849.63;5011833;28;20045;-67
2021/03/07 05:39:25;;;;;;;9.63;4.13;;;;;;;12.49;73.63;101841.88;5011259;28;20140;-67
2021/03/07 05:41:53;;;;;;;10.63;4.80;;;;;;;12.63;73.82;101843.09;5011963;28;20128;-67
2021/03/07 05:44:20;;;;;;;12.90;5.32;;;;;;;12.85;74.17;101844.53;5010998;28;20447;-66
2021/03/07 05:46:48;;;;;;;15.75;5.93;;;;;;;13.06;74.50;101833.53;5011378;28;20044;-67
2021/03/07 05:49:15;;;;;;;9.98;4.63;;;;;;;13.24;74.78;101833.06;5011082;28;20034;-67
2021/03/07 05:51:44;;;;;;;9.25;4.18;;;;;;;13.44;75.01;101834.41;5011855;28;20034;-67
2021/03/07 05:54:12;;;;;;;17.88;6.97;;;;;;;13.64;75.20;101840.13;5011299;28;20520;-67
2021/03/07 05:56:40;;;;;;;10.02;4.53;;;;;;;13.84;75.32;101834.34;5010247;28;20399;-67
2021/03/07 05:59:07;;;;;;;8.05;3.30;;;;;;;14.00;75.55;101831.97;5011485;28;20034;-67
2021/03/07 06:01:36;;;;;;;11.00;5.63;;;;;;;14.12;75.37;101835.72;5011255;28;20501;-67
2021/03/07 06:04:05;;;;;;;12.40;5.28;;;;;;;14.11;74.77;101833.94;5011244;28;20073;-66
2021/03/07 06:06:34;;;;;;;8.70;3.67;;;;;;;14.01;74.18;101837.31;5000946;28;20315;-67
2021/03/07 06:09:17;;;;;;;8.70;3.60;;;;;;;14.03;73.48;101835.59;4994492;28;20068;-67
2021/03/07 06:11:45;;;;;;;8.55;3.70;;;;;;;13.98;73.42;101837.22;5010494;28;20136;-67
2021/03/07 06:14:23;;;;;;;10.68;3.58;;;;;;;14.15;73.36;101838.47;5010396;28;20033;-67
2021/03/07 06:17:01;;;;;;;7.55;3.40;;;;;;;14.41;73.74;101835.41;5011265;28;20080;-67
2021/03/07 06:19:30;;;;;;;10.73;4.85;;;;;;;14.64;73.86;101839.31;5010589;28;20030;-67
2021/03/07 06:22:11;;;;;;;10.32;4.32;;;;;;;14.84;73.71;101843.19;5010525;28;20045;-67
2021/03/07 06:24:40;;;;;;;13.43;5.65;;;;;;;15.14;73.63;101849.00;5010329;28;20038;-67
2021/03/07 06:27:08;;;;;;;9.75;5.65;;;;;;;15.35;73.14;101844.84;5010930;28;20072;-68
2021/03/07 06:29:38;;;;;;;11.75;5.60;;;;;;;15.59;72.74;101841.63;5010365;28;20531;-67
2021/03/07 06:32:20;;;;;;;15.88;8.25;;;;;;;15.92;72.55;101842.94;5010739;28;20037;-67
2021/03/07 06:34:49;;;;;;;26.92;12.57;;;;;;;16.11;72.37;101845.78;5007573;28;20156;-68
2021/03/07 06:37:16;;;;;;;45.60;28.30;;;;;;;16.32;71.97;101841.56;5010019;28;20041;-68
2021/03/07 06:39:43;;;;;;;42.45;24.77;;;;;;;16.60;71.85;101836.50;5008400;28;20058;-67
2021/03/07 06:42:12;;;;;;;132.63;74.57;;;;;;;16.89;71.64;101829.59;5009746;28;20065;-67
2021/03/07 06:44:51;;;;;;;85.68;48.70;;;;;;;17.12;71.17;101827.09;5004365;28;20042;-67
2021/03/07 06:47:18;;;;;;;65.35;37.20;;;;;;;17.25;70.65;101826.28;5006261;28;20042;-68
2021/03/07 06:49:45;;;;;;;51.75;28.77;;;;;;;17.44;70.76;101828.16;5009261;28;20494;-67
2021/03/07 06:52:16;;;;;;;44.03;22.95;;;;;;;17.79;70.08;101822.97;5014019;28;20582;-68
2021/03/07 06:54:44;;;;;;;16.20;6.75;;;;;;;18.10;68.83;101831.97;5008285;28;20057;-68
2021/03/07 06:57:12;;;;;;;19.02;8.27;;;;;;;18.26;65.98;101825.75;5015679;28;20061;-67
2021/03/07 06:59:39;;;;;;;18.00;7.18;;;;;;;18.41;66.45;101832.88;5007913;28;20072;-67
2021/03/07 07:02:12;;;;;;;13.70;5.93;;;;;;;18.61;66.42;101824.91;5020819;28;20033;-67
2021/03/07 07:04:45;;;;;;;16.45;6.85;;;;;;;18.88;65.77;101826.66;5014302;28;20092;-68
2021/03/07 07:07:16;;;;;;;13.67;4.40;;;;;;;19.10;65.27;101821.25;5010419;28;20510;-67
2021/03/07 07:09:47;;;;;;;17.10;8.45;;;;;;;19.30;63.71;101831.00;5010224;28;20100;-68
2021/03/07 07:12:21;;;;;;;24.60;10.75;;;;;;;19.42;63.25;101831.00;5009871;28;20046;-68
2021/03/07 07:14:49;;;;;;;14.88;6.63;;;;;;;19.56;62.46;101829.16;5010303;28;20048;-68
2021/03/07 07:17:19;;;;;;;29.55;14.48;;;;;;;19.47;62.54;101824.75;5009868;28;20049;-68
2021/03/07 07:19:47;;;;;;;21.58;10.25;;;;;;;19.22;62.57;101827.50;5010499;28;20117;-68
2021/03/07 07:22:16;;;;;;;32.72;17.92;;;;;;;19.02;62.40;101831.09;5009780;28;20076;-68
2021/03/07 07:24:45;;;;;;;29.45;15.93;;;;;;;18.89;62.13;101834.69;5010166;28;20372;-68
2021/03/07 07:27:12;;;;;;;15.48;6.43;;;;;;;18.78;61.78;101832.91;5010069;28;20052;-67
2021/03/07 07:29:40;;;;;;;20.83;8.70;;;;;;;18.87;61.52;101843.59;5022582;28;20041;-68
2021/03/07 07:32:13;;;;;;;26.80;14.25;;;;;;;18.90;61.87;101846.28;5021396;28;20038;-68
2021/03/07 07:34:48;;;;;;;31.67;16.10;;;;;;;19.23;61.59;101842.66;5013567;28;20034;-68
2021/03/07 07:37:25;;;;;;;15.70;7.80;;;;;;;19.41;61.07;101840.81;5009463;28;20088;-69
2021/03/07 07:39:55;;;;;;;46.20;23.20;;;;;;;19.40;60.74;101838.13;4999809;28;20130;-67
2021/03/07 07:42:26;;;;;;;10.45;4.97;;;;;;;19.46;60.33;101838.16;4989300;28;20046;-68
2021/03/07 07:44:55;;;;;;;13.25;4.32;;;;;;;19.39;59.40;101845.28;5008618;28;20034;-68
2021/03/07 07:47:23;;;;;;;11.38;4.70;;;;;;;19.21;59.42;101839.09;5007866;28;20065;-68
2021/03/07 07:49:51;;;;;;;19.02;9.68;;;;;;;19.21;59.75;101844.44;5008219;28;20045;-68
2021/03/07 07:52:39;;;;;;;36.70;17.02;;;;;;;19.47;59.45;101835.47;5007964;28;20100;-68
2021/03/07 07:55:14;;;;;;;20.17;8.30;;;;;;;19.45;59.39;101837.22;4999988;28;20116;-68
2021/03/07 07:57:50;;;;;;;34.92;13.70;;;;;;;19.38;59.33;101842.59;5005373;28;20070;-68
2021/03/07 08:00:21;;;;;;;61.65;22.17;;;;;;;19.27;59.36;101842.63;5008610;28;20046;-69
2021/03/07 08:02:54;;;;;;;85.68;34.85;;;;;;;19.43;59.49;101838.09;5008738;28;20045;-69
2021/03/07 08:05:44;;;;;;;34.80;17.80;;;;;;;19.84;58.86;101833.50;5008721;28;20034;-69
2021/03/07 08:08:14;;;;;;;20.27;10.55;;;;;;;20.07;58.51;101833.38;4990436;28;20042;-70
2021/03/07 08:10:49;;;;;;;27.92;12.90;;;;;;;20.21;58.40;101834.19;5004320;28;20687;-68
2021/03/07 08:13:44;;;;;;;26.58;10.05;;;;;;;20.36;58.04;101835.00;5007306;28;20042;-69
2021/03/07 08:16:11;;;;;;;;;;;;;;;20.63;57.22;101824.03;5009260;28;20076;-69
2021/03/07 08:18:54;;;;;;;15.18;7.30;;;;;;;20.95;57.50;101831.78;5008470;28;19997;-69
2021/03/07 08:21:23;;;;;;;10.50;3.38;;;;;;;21.08;57.15;101817.31;5008917;28;20046;-69
2021/03/07 08:23:59;;;;;;;46.15;22.25;;;;;;;20.99;57.25;101817.44;5008990;28;20030;-69
2021/03/07 08:26:28;;;;;;;31.90;13.48;;;;;;;21.18;56.73;101813.69;5009085;28;20509;-69
2021/03/07 08:28:56;;;;;;;18.23;9.38;;;;;;;21.30;56.05;101810.84;5008856;28;20045;-69
2021/03/07 08:31:36;;;;;;;31.75;15.98;;;;;;;21.31;55.44;101815.31;5007715;28;20042;-69
2021/03/07 08:34:24;;;;;;;22.40;11.07;;;;;;;21.29;54.70;101810.88;5008868;28;20092;-69
2021/03/07 08:36:58;;;;;;;80.30;33.38;;;;;;;21.25;55.00;101815.41;5003154;28;20042;-69
2021/03/07 08:39:27;;;;;;;93.63;35.50;;;;;;;21.45;54.81;101815.16;5008554;28;20483;-70
2021/03/07 08:42:02;;;;;;;35.50;16.65;;;;;;;21.28;54.23;101820.72;5009218;28;20263;-69
2021/03/07 08:44:30;;;;;;;29.55;16.08;;;;;;;20.97;54.43;101814.78;5007821;28;20045;-68
2021/03/07 08:46:57;;;;;;;12.63;5.25;;;;;;;21.12;54.54;101824.47;5011149;28;20050;-68
2021/03/07 08:49:29;;;;;;;21.38;9.07;;;;;;;21.59;54.19;101823.06;5011669;28;20672;-68
2021/03/07 08:52:07;;;;;;;15.30;5.50;;;;;;;21.82;53.26;101827.22;5012109;28;20038;-68
2021/03/07 08:54:35;;;;;;;12.25;3.95;;;;;;;21.60;53.23;101817.63;5011703;28;20058;-68
2021/03/07 08:57:09;;;;;;;9.18;3.88;;;;;;;21.45;53.55;101818.75;5012460;28;20053;-68
2021/03/07 08:59:36;;;;;;;9.55;3.88;;;;;;;21.53;53.82;101820.44;5011411;28;20041;-69
2021/03/07 09:02:05;;;;;;;13.13;3.53;;;;;;;21.87;53.24;101819.97;5012423;28;20084;-68
2021/03/07 09:04:40;;;;;;;11.68;4.18;;;;;;;21.72;52.84;101814.81;5011674;28;20442;-69
2021/03/07 09:07:08;;;;;;;10.50;4.20;;;;;;;21.41;52.92;101821.47;5011535;28;20040;-67
2021/03/07 09:09:42;;;;;;;10.10;3.95;;;;;;;21.19;53.25;101818.16;5012176;28;20108;-68
2021/03/07 09:12:11;;;;;;;14.07;4.32;;;;;;;20.91;53.57;101819.31;5012739;28;20049;-68
2021/03/07 09:14:41;;;;;;;10.02;3.78;;;;;;;20.64;53.82;101815.97;5011486;28;20042;-67
2021/03/07 09:17:18;;;;;;;8.77;4.40;;;;;;;20.47;54.12;101812.56;5012608;28;20050;-68
2021/03/07 09:19:46;;;;;;;13.32;4.20;;;;;;;20.32;54.46;101817.13;5012205;28;20045;-68
2021/03/07 09:22:24;;;;;;;16.85;5.40;;;;;;;20.19;55.03;101814.53;5012070;28;20073;-68
2021/03/07 09:25:07;;;;;;;11.00;4.15;;;;;;;20.01;55.66;101809.28;5012365;28;20041;-68
2021/03/07 09:27:38;;;;;;;12.13;3.55;;;;;;;20.05;55.72;101802.09;5010988;28;20403;-68
2021/03/07 09:30:11;;;;;;;10.55;4.32;;;;;;;20.17;55.50;101808.28;5011894;28;20111;-68
2021/03/07 09:32:44;;;;;;;14.47;4.77;;;;;;;20.23;55.55;101802.88;5003345;28;20499;-68
2021/03/07 09:35:27;;;;;;;16.83;6.95;;;;;;;20.18;55.64;101799.34;5005176;28;20180;-68
2021/03/07 09:38:00;;;;;;;12.43;6.05;;;;;;;20.16;55.64;101800.22;5024083;28;20053;-68
2021/03/07 09:40:35;;;;;;;10.35;4.45;;;;;;;20.19;55.67;101794.88;5011409;28;20060;-68
2021/03/07 09:43:07;;;;;;;10.70;4.40;;;;;;;20.01;56.27;101792.31;5011923;28;20491;-69
2021/03/07 09:45:38;;;;;;;8.88;3.40;;;;;;;19.96;56.41;101794.13;5010861;28;20116;-68
2021/03/07 09:48:07;;;;;;;7.45;3.45;;;;;;;19.90;56.28;101785.22;5011745;28;20070;-68
2021/03/07 09:50:35;;;;;;;10.63;3.40;;;;;;;19.77;56.22;101786.19;5010783;28;20034;-68
2021/03/07 09:53:05;;;;;;;9.40;3.78;;;;;;;19.90;56.13;101782.53;5011747;28;20148;-68
2021/03/07 09:55:35;;;;;;;10.60;3.88;;;;;;;19.84;56.35;101795.97;5010383;28;20129;-69
2021/03/07 09:58:04;;;;;;;9.80;3.30;;;;;;;19.99;56.41;101795.00;5013290;28;20061;-68
2021/03/07 10:00:31;;;;;;;8.75;3.70;;;;;;;19.95;56.63;101790.56;5008473;28;20065;-69
2021/03/07 10:02:59;;;;;;;9.60;4.50;;;;;;;19.78;57.32;101787.97;5008973;28;20038;-69
2021/03/07 10:05:26;;;;;;;10.45;3.85;;;;;;;19.58;57.92;101788.97;5009904;28;20041;-69
2021/03/07 10:07:53;;;;;;;10.77;4.90;;;;;;;19.44;58.17;101781.88;5010454;28;20041;-68
2021/03/07 10:10:23;;;;;;;13.20;5.30;;;;;;;19.33;58.59;101785.50;5009870;28;20042;-69
2021/03/07 10:12:54;;;;;;;9.48;3.95;;;;;;;19.30;58.65;101782.81;5010380;28;20141;-68
2021/03/07 10:15:28;;;;;;;9.27;4.10;;;;;;;19.18;58.96;101783.75;5009657;28;20049;-69
2021/03/07 10:17:56;;;;;;;7.85;3.35;;;;;;;19.27;58.53;101794.44;5009744;28;20121;-68
2021/03/07 10:20:23;;;;;;;9.60;4.30;;;;;;;19.28;58.35;101796.22;5010168;28;20498;-68
2021/03/07 10:22:56;;;;;;;8.80;4.63;;;;;;;19.23;58.70;101794.47;5010687;28;20112;-68
2021/03/07 10:25:26;;;;;;;11.43;4.40;;;;;;;19.13;58.95;101790.03;5009558;28;20486;-68
2021/03/07 10:28:00;;;;;;;11.80;4.63;;;;;;;18.97;59.16;101787.38;5008266;28;20065;-68
2021/03/07 10:30:35;;;;;;;12.70;4.50;;;;;;;19.02;59.14;101790.06;5006064;28;20038;-68
2021/03/07 10:33:14;;;;;;;10.65;5.55;;;;;;;19.32;58.34;101792.63;5010938;28;20042;-68
2021/03/07 10:35:58;;;;;;;12.80;4.78;;;;;;;19.59;57.39;101790.75;5008566;28;20121;-68
2021/03/07 10:38:25;;;;;;;;;;;;;;;19.58;57.07;101783.63;5010215;28;20115;-68
2021/03/07 10:40:53;;;;;;;12.23;6.60;;;;;;;19.69;56.63;101781.81;5010739;28;19949;-68
2021/03/07 10:43:22;;;;;;;12.60;5.75;;;;;;;19.81;56.19;101779.03;5010000;28;20402;-68
2021/03/07 10:45:49;;;;;;;12.43;6.00;;;;;;;19.76;56.11;101776.38;5010215;28;20065;-68
2021/03/07 10:48:16;;;;;;;10.60;5.05;;;;;;;19.80;55.89;101772.78;5010453;28;20699;-69
2021/03/07 10:50:46;;;;;;;14.70;5.93;;;;;;;19.78;55.49;101766.53;5010340;28;20060;-67
2021/03/07 10:53:14;;;;;;;11.77;5.28;;;;;;;19.83;55.18;101766.50;4993096;28;20046;-67
2021/03/07 10:55:41;;;;;;;10.43;5.97;;;;;;;19.79;54.91;101762.97;5009928;28;20045;-69
2021/03/07 10:58:08;;;;;;;10.70;5.53;;;;;;;19.85;54.91;101762.94;5010576;28;20408;-68
2021/03/07 11:00:36;;;;;;;13.10;6.88;;;;;;;19.87;54.75;101762.94;5009575;28;20049;-68
2021/03/07 11:03:04;;;;;;;16.30;5.93;;;;;;;19.78;54.88;101755.81;5010101;28;20113;-68
2021/03/07 11:05:31;;;;;;;9.40;5.47;;;;;;;19.78;54.77;101755.81;5009375;28;20463;-69
2021/03/07 11:07:58;;;;;;;16.27;5.75;;;;;;;19.88;54.97;101760.25;5010156;28;20133;-68
2021/03/07 11:10:25;;;;;;;11.50;6.65;;;;;;;20.02;54.79;101749.38;5009322;28;20041;-69
2021/03/07 11:12:53;;;;;;;11.25;6.07;;;;;;;19.97;54.87;101744.97;5010000;28;20522;-68
2021/03/07 11:15:21;;;;;;;13.40;6.05;;;;;;;19.77;55.21;101748.69;5008989;28;21495;-68
2021/03/07 11:17:49;;;;;;;13.73;6.93;;;;;;;19.89;55.33;101737.88;4992969;28;20084;-68
2021/03/07 11:20:17;;;;;;;13.15;7.13;;;;;;;19.97;55.30;101739.59;5009407;28;20080;-68
2021/03/07 11:22:44;;;;;;;14.32;7.25;;;;;;;19.81;55.13;101734.38;5009653;28;20723;-67
2021/03/07 11:25:11;;;;;;;14.82;7.63;;;;;;;19.75;55.46;101731.75;5009633;28;20073;-68
2021/03/07 11:27:38;;;;;;;10.70;5.90;;;;;;;19.76;55.71;101736.16;5008970;28;20588;-68